Colleyville, Texas
Current Conditions -  °F | °C
As of 6:53 PM on Wednesday 22 Oct 2014 (Local Time) from KDFW Reporting Station
Overcast Overcast  
Wind Chill: 76°   Ceiling: 17000
Heat Index: 76°   Visibility: 10mi
Dew Point: 56°   Wind: 7mph
Humidity: 50%   Direction: 110°ESE
Pressure: 30.08"   Gusts: NA
Location:  32.89°N, 97.16°W
Report Text: KDFW 222353Z 11006KT 10SM BKN170 OVC250 24/13 A3008 RMK AO2 SLP179 T02440133 10267 20244 53002
Loading
Personal Weather Stations






























Interactive Weather Map
Tropical Storm Tracking
New forecast layout! Learn more

10-Day Weather Forecast

Advertisements
Track Severe Weather on mobile